Timeline UpdatesTrip UpdatesNews PostsPvt PostsTravel TipsAdmin PostsConv PostsFollowed PostsChat RequestsBlog PostsPNR Posts

Disclaimer
Search
 
 
Sat Apr 19, 2014 17:36:01 ISTHomeTrainsΣChainsAtlasPNRForumGalleryNewsFAQTripsMembersLoginFeedback
No Recent News for this Train
Other Trains in the News **new
Latest...
Cancelled on 5/4/14 #1046550
Sat Apr 05, 2014 (12:53AM)
⇐ Return Journey: Train# 15484

14083⇒15483/Sikkim Mahananda Express

Apr 19 departure has been Rescheduled to start 5h 15m late
New Time: 12:30
Jan 14 2014 (8:05PM)
Change Departure Station:
Change Arrival Station:
Post a Train Travel TipPost a Train Travel Tip **new
Post a Comment/Question/Picture/VideoPost a Comment/Question/Picture/Video
Pantry/Catering
✓ Pantry Car Avbl
✓ Catering Avbl
RSA - Rake Sharing
Rake/Coach Composition
Loco-SLR-GS-GS-B1-AB1-B2-S13-S12-S11-PC-S10-S9-S8-S7-S6-S5-S4-S3-S2-S1-GS-GS-GS-SLR.
Loco
SGUJ WDP-4 (APDJ to PNBE), GZB/MGS WAP-4 (PNBE to DLI)
News    PNR    Forum    Time-Table    Availability    Fare Chart    Map    Arr/Dep History    Trips    Gallery    ΣChains    X/O    Timeline    
Travel Time: 34h 55m    56 halts    Distance: 1652 km    Avg Speed: 47 km/hr
Type: Mail/Express
Zone: NFR/Northeast Frontier
Departs @ 07:15 (Avg 3h 55m late)
Platform# 1
SMTWTFS
Alipur Duar Junction/APDJ 
Arrives @ 18:10 +1 night (Avg 5h 11m late)
Platform# 11
SMTWTFS
Old Delhi Junction/DLI 

56 halts. 287 intermediate Stations between Alipur Duar Junction and Old Delhi Junction

Show ALL intermediate Stations  Show Old Time-Table

#CodeStation NameX/OArrivesAvgDepartsAvgHaltPFDay#KmSpeedElevZoneAddress
1APDJ»Alipur Duar Junction (3)»  -07:15+3:55110.06053mNFR03564-255091, West Bengal
2HSAHasimara (3)X  07:50+3:5607:52+3:562m--134.856123mNFRDist - jalpaiguri, West Bengal
3DLODalgaon (3)  08:19+3:5808:20+3:591m1159.950120mNFRPh:03563-266013, West Bengal
4BNVBinnaguri (3)  08:31+4:0008:32+4:021m--169.162132mNFRBinnaguri, West Bengal
5NMZNew Mal Junction (3)X  09:15+4:1009:20+4:155m--1113.441161mNFRDist - Jalpaiguri, West Bengal
6SGUJSiliguri Junction (5)  10:30+4:0710:35+4:155m--1161.229120mNFRDist-Darjeeling Siliguri-734001, West Bengal
7NJPNew Jalpaiguri Junction (8)X  10:50+4:0311:10+4:0520m31168.576114mNFRCity-Siliguri . Dist-Jalpaiguri, West Bengal
8AUBAluabari Road (2)  11:55+4:1511:57+4:162m21225.2730mNFRDist - uttar Dinajpur, West Bengal
9KNEKishanGanj (3)X  12:22+4:2012:27+4:205m21255.86852mNFRKishanganj, Bihar
10DLKDalkhola (3)X  12:52+4:2412:53+4:251m101284.37644mNFRDalkola, West Bengal
11BOEBarsoi Junction (3)  13:16+4:3013:18+4:302m--1313.45737mNFRdist- katihar, Bihar
12AZRAzamnagar Road (2)  13:32+4:3113:33+4:341m--1326.73534mNFRAzamnagar, Bihar
13LAVLabha  14:09+4:3014:10+4:311m--1347.81829mNFRNational Highway 81, Bihar
14KIRKatihar Junction (7)XO  15:25+4:1515:45+4:1720m51370.64335mNFR854105., Bihar
15SMOSemapur16:01+4:1616:03+4:162m--1382.1-35mECRKatihar, Bihar
16CRRKaragola Road  16:06+4:2416:07+4:271m--1392.96836mECRLachhmipur, Bihar
17KUEKurselaX  16:22+4:3016:23+4:331m--1409.97431mECRNH 31, Bihar
18NNANaugachia  16:38+4:3216:39+4:331m--1428.46037mECRBhagalpur, Bihar
19THBThana Bihpur JunctionXO  16:55+4:3416:56+4:361m--1444.31639mECRThana Bihpur, Bihar
20NNRNarayanpur  17:24+4:3117:25+4:301m--1451.95039mECRNarayanpur, Bihar
21PSRPasrahaX  17:39+4:3017:40+4:341m--1463.55341mECRPasraha, Bihar
22MSKMahes Khunt  17:54+4:3617:55+4:401m--1475.95737mECRMaheshkhunt, Bihar
23MNEMansi Junction (3)X  18:06+4:4118:07+4:431m--1486.33143mECR06244-233234, Bihar
24KGGKhagaria Junction (3)X  18:24+4:3918:25+4:431m--1495.15343mECR06244-223596, Bihar
25SKJSahibpur Kamal Junction (2)X  18:39+4:4218:40+4:451m--1507.54241mECRShahpur Kamal, Bihar
26LKNLakhminia  18:54+4:4118:55+4:421m--1517.22245mECRBegusarai, Bihar
27BGSBegu Sarai (2)X  19:44+4:3319:45+4:291m--1535.015 ECR06243-222853, Bihar
28BJUBarauni Junction (9)X  20:40+5:0020:45+5:025m11548.419 ECRBegusarai, Bihar
29MKAMokama Junction (3)X  21:51+5:1221:53+5:092m31569.18848mECRPatna, Bihar
30BKPBakhtiyarpur Junction (5)  22:23+5:0422:25+5:062m--1613.24951mECRPatna, Bihar
31PNBEPatna Junction (10)X  23:20+4:2523:45+4:2925m41658.33557mECRPatna 800001, Bihar
32DNRDanapur (5)  00:01+4:2900:03+4:292m--2667.79158mECRKhagaul, Bihar
33ARAAra Junction (3)  00:29+4:2800:31+4:362m--2707.37163mECRarrah( 06182-233411), Bihar
34BXRBuxar (3)X  01:29+4:2601:32+4:263m--2775.84267mECRBuxar, Bihar
35MGSMughal Sarai Junction (8)X  03:45+3:5304:00+3:5615m42869.76483mECRMughalsarai 232101, Uttar Pradesh
36MZPMirzapur (3)  04:59+3:5905:00+4:031m--2932.94088mNCRMirzapur, Uttar Pradesh
37BDLVindhyachal (3)X  05:11+4:1205:12+4:141m--2940.28888mNCRMirzapur, Uttar Pradesh
38NYNNaini Junction (4)  06:03+4:1606:05+4:072m221015.01798mNCRAllahabad, Uttar Pradesh
39ALDAllahabad Junction (10)X  06:30+4:1706:35+4:225m321022.189100mNCRAllahabad 211003, Uttar Pradesh
40FTPFatehpur (3)  07:54+4:2807:55+4:231m--21138.862120mNCRFatehpur, Uttar Pradesh
41CNBKanpur Central (10)  09:10+4:3709:20+4:4110m521216.441128mNCRKanpur, Uttar Pradesh
42PNKPanki (3)X  09:37+4:3409:38+4:351m--21227.976129mNCRKANPUR-208 020, Uttar Pradesh
43RURARura (4)X  10:04+4:4110:05+4:431m--21260.771137mNCRJhinjhak, Uttar Pradesh
44JJKJhinjhak (3)  10:21+4:3310:22+4:351m321279.859140mNCRAuraiya, Uttar Pradesh
45PHDPhaphund (4)X  10:42+4:3910:43+4:421m--21299.653146mNCRdist. Auraiya, Uttar Pradesh
46ULDAchalda (3)X  11:02+4:4011:03+4:421m--21316.465147mNCRDist. Auraiya(05688-1072), Uttar Pradesh
47BNTBharthana (3)X  11:21+4:4111:22+4:511m--21335.952147mNCRBharthana, Uttar Pradesh
48ETWEtawah (5)X  11:45+4:4611:46+4:571m221355.872154mNCRDistt. Etawah, Uttar Pradesh
49SKBShikohabad Junction (4)  12:32+4:5812:33+5:081m321411.257166mNCRDistrict Firozabad, Uttar Pradesh
50FZDFirozabad (4)O  12:54+4:5612:55+5:071m321431.125164mNCRFirozabad, Uttar Pradesh
51TDLTundla Junction (4)  13:35+4:5413:45+4:5210m221447.670167mNCRDistt.Firozabad, Uttar Pradesh
52JLSJalesar Road (1)X  14:09+4:5914:10+5:011m121475.563172mNCRMDR 106W, Uttar Pradesh
53HRSHathras Junction (3)  14:29+5:0614:30+5:081m--21495.660183mNCRMahamaya Nagar(05722-242803), Uttar Pradesh
54ALJNAligarh Junction (4)O  15:00+5:1515:05+5:245m221525.775192mNCRAligarh, Uttar Pradesh
55KRJKhurja Junction (4)XO  15:40+5:1915:45+5:185m--21569.238199mNCRBulandshahr, Uttar Pradesh
56GZBGhaziabad Junction (6)X  17:25+5:0517:30+5:115m321631.943217mNRGhaziabad, Uttar Pradesh
57DSAShahdara Junction (4)  17:49+5:0417:50+5:121m--21645.519212mNRCircular Rd, Delhi NCT
58DLI•Old Delhi Junction (16)•  18:10+5:11-1121651.8-219mNRNear Chandni Chowk Metro Station, Delhi NCT
Scroll to Top
Scroll to Bottom